200 serials | card recovery v6.10 build 1210 registration key #

Date Name Success Rate
2012-12-12 19:14:56 Memory card v6.10 build 1210 63%
2009-10-22 23:50:34 WhereIsIt 3.90 Build 1210 100%
2012-12-13 19:49:06 Xilisoft DVD Creator 6.1.4 Build 1210 0%
2011-09-08 09:58:40 Acoustica Mixcraft v1.10 Build 15 Registration Info by MaBi 60%
2012-12-12 19:14:51 Memory Card Recovery 64%
2012-12-12 19:14:53 Memory Card Recovery 5.30 65%
2009-10-17 06:21:18 Data Doctor Recovery SIM Card V3.0.1.5 72%
2009-10-22 23:46:25 Data Doctor Recovery SIM Card V3.0.1.5 69%
2009-10-17 06:21:18 Data Doctor Recovery Memory Card V3.0.1.5 56%
2009-10-22 23:46:25 Data Doctor Recovery Memory Card V3.0.1.5 72%
2011-09-08 10:22:06 Business Card Designer Plus 7 Build 2.0.0 0%
2011-09-08 10:28:05 COM Wiz 1.8.0.1210 66%
2011-09-08 10:28:05 COM Wiz v1.8.0.1210 0%
2011-09-08 10:28:05 COM Wiz v1.8.0.1210 by DBC 0%
2011-09-08 11:34:17 MP3 Tag Clinic v3.1210 0%
2009-10-22 23:27:18 Allok MOV Converter 3.3.1210 67%
2011-09-08 12:54:19 Tiny Personal Firewall 5.00.1210 0%
2011-09-08 12:54:19 Tiny Personal Firewall v5.00.1210 0%
2012-12-12 16:10:10 JamVideoSoft CD Duplicate Master v1.0.0.1210 0%
2009-10-22 23:50:11 Tiny Personal Firewall 5.00.1210 Desktop Edition 0%
2009-10-22 23:50:11 Tiny Personal Firewall 5.00.1210 Server Edition 0%
2011-09-08 12:54:19 Tiny Personal Firewall 5.00.1210 Desktop Edition 0%
2011-09-08 12:54:19 Tiny Personal Firewall 5.00.1210 Server Edition 0%
2011-09-08 12:54:19 Tiny Personal Firewall v5.00.1210 Desktop Edition 0%
2011-09-08 12:54:19 Tiny Personal Firewall v5.00.1210 Server Edition 0%
2011-09-08 12:36:44 Q Recovery 98 1.24 build 186 0%
2011-09-08 12:36:44 Q Recovery 98 v1.24 build 186 0%
2011-09-08 12:36:44 Q-Recovery 1.26 build 190 0%
2011-09-08 12:36:44 Q-Recovery v1.26 build 190 0%
2009-10-22 23:49:20 Password Recovery Kit 5.5 Build 277 0%
2009-10-22 23:50:57 Zero Assumption Recovery 8.3 Build 50 60%
2011-09-08 12:28:40 Password Recovery Kit 5.5 build 277 0%
2011-09-08 12:28:40 Password Recovery Kit v1.5 build 277 32%
2011-09-08 12:36:44 Q-Recovery 98 Professionalv1.2 Build 176 0%
2011-09-08 12:30:55 PhotoOne Recovery v2.0 build 04032005 0%
2012-12-12 02:36:34 Asterisk Recovery Genie 1.20 build 20060308 0%
2009-10-17 06:35:49 Word Password Recovery Genie V1.20 Build 060311 20%
2009-10-22 23:50:39 Word Password Recovery Genie V1.20 Build.060311 0%
2011-09-08 12:28:32 Passware Password Recovery Kit Enterprise 7.3 build 1643 0%
2011-09-08 12:28:32 Passware Password Recovery Kit Enterprise v7.0 Build 1187 80%
2011-09-08 13:20:32 Word Password Recovery Genie 1.20 Build 060311 12%
2011-09-08 10:42:09 DAS Registration 1.5.2 69%
2011-09-08 10:42:09 DAS Registration For CW5 0%
2011-09-08 10:42:09 DAS Registration v1.5.2 0%
2009-10-17 06:27:02 Lazarus Registration DLL V1.0 59%
2009-10-22 23:48:48 MemoriesonTV Registration 0%
2009-10-22 23:49:42 Registration Wizard 40%
2011-09-08 10:06:47 AnetHelpTool v4.02 Registration 52%
2011-09-08 10:22:13 ByeLines Registration 60%
2011-09-08 10:57:42 Ftgate Registration 63%
2011-09-08 11:15:16 Infodex v2.10 Registration 0%
2011-09-08 11:25:08 Lazarus Registration DLL v1.0 0%
2011-09-08 11:27:46 Mac Opener v3.0 Registration 57%
2011-09-08 11:32:59 mIRC v4.5+ Registration 60%
2011-09-08 11:32:59 mIRC v4.52 Registration 60%
2011-09-08 12:37:02 Quant v2.0 Registration 0%
2011-09-08 12:41:14 Registration Suite 1.0 60%
2011-09-08 12:41:14 Registration Suite v1.0 60%
2011-09-08 12:41:14 Registration Wizard Pro 5.01 46%
2011-09-08 12:41:14 Registration Wizard Pro v5.01 60%
2011-09-08 13:18:59 WinHacker 95 v2.02 Registration 57%
2012-12-13 05:12:00 Registration Key : 526EFEF086E09600449E667EA2DAE8E2E6D642BC 83%
2009-10-22 23:27:21 Ardamax Keylogger 2.9 Registration 56%
2009-10-22 23:48:49 Microsoft Registration Hacker - 39%
2009-10-22 23:49:57 SoudForge ALL (No Registration Requiered) 0%
2009-10-22 23:50:26 Valve's Registration Armor Key-Gen 60%
2011-09-08 10:21:42 Browserola v1.01 Temp. Registration 0%
2011-09-08 10:56:11 FontLook v3.1 Registration Code 86%
2011-09-08 11:31:51 Microsoft Registration Hacker 0%
2011-09-08 11:31:51 Microsoft Registration Hacker - 0%
2011-09-08 11:31:51 Microsoft Registration HackerMSREGHACK 0%
2011-09-08 11:32:07 Microstation v5.xx.xx & 95 FULL REGISTRATION 48%
2011-09-08 11:42:43 Nic O'Matic 1.6 Registration Code 50%
2011-09-08 11:42:43 Nic O'Matic v1.6 Registration Code 55%
2011-09-08 12:34:57 PolyTrans V1.2E Registration Activator CD-Key 62%
2011-09-08 12:34:57 PolyView v2.9b16 Registration 0%
2011-09-08 12:54:09 Time Registration (German) 1.10 0%
2011-09-08 12:59:30 Super Collapse Registration 100%
2011-09-08 13:23:15 Yipe! II for Windows Registration #154 0%
2012-12-13 08:49:53 Softwarenetz Time Registration v1.10 0%
2012-12-13 08:49:56 Softwarenetz Time Registration v1.14 0%
2012-12-13 15:34:10 Valve's Registration Armor Key-Gen 0%
2009-10-22 23:48:17 Internet Download Manager Registration 50%
2011-09-08 10:25:56 Cheyenne Bitware V4.0 Registration Number 60%
2011-09-08 11:31:51 Microsoft Registration Hacker MSREGHACK 80%
2011-09-08 11:31:51 Microsoft Visual Basic 5 registration cd key 72%
2011-09-08 12:54:14 TimeSlips 10.5 enterprise - with registration code! 0%
2012-12-12 08:07:32 Download avast 5.0.667 Antivirus registration 0%
2012-12-13 05:12:00 Registration Code For PDFZilla Giveaway 0%
2012-12-13 05:12:00 Registration key for x-3gp-video-converter-38540 54%
2012-12-13 13:12:40 Total Image Converter Registration Key 57%
2011-09-08 11:30:16 MediaBlaze 98 v1.01 Win95/NT User: delphic Registration 0%
2012-12-13 05:12:00 Registration code:-826510-16101-266644 71%
2009-10-22 23:49:02 Norton Internet Security 2005 Registration Guide 0%
2012-12-12 19:40:26 Microsoft Visual Basic 2008 Express Edition Registration key 20%
2009-10-22 23:50:02 Superwin XP Recovery CD And XP Recovery CD Maker V1.01 0%
2011-09-08 12:26:24 Office Recovery Excel Recovery 2.1 78%
2011-09-08 12:26:24 Office Recovery Excel Recovery v2.1 0%
2009-10-22 23:49:23 PK-Name Card 1.2 76%
2011-09-08 10:46:36 E-Card 3.6 0%
2011-09-08 10:46:36 E-Card 3.7 0%
2011-09-08 10:46:36 E-Card v3.6 0%
2011-09-08 10:46:36 E-Card v3.7 0%
2011-09-08 12:34:12 PK-Name Card v1.2 0%
2009-10-17 06:20:07 Card Tricks V1.1-TE 84%
2009-10-17 06:22:59 FileRecovery For SD Card V1.2 71%
2009-10-23 07:01:26 5 Card Dash 54%
2009-10-22 23:27:26 Auto Card 10%
2009-10-22 23:45:49 Card Deck Pro 3.0 0%
2009-10-22 23:45:49 Card Poker 1.0a 100%
2009-10-22 23:45:49 Card Poker 1.2 0%
2009-10-22 23:45:49 Card Poker 2.0 53%
2009-10-22 23:47:42 Engine CARD 2.1 70%
2009-10-22 23:47:51 FileRecovery For SD Card 1.2 52%
2009-10-22 23:48:53 My Time Card 1.0 0%
2009-10-22 23:49:23 Picture Card 1.2 0%
2011-09-08 09:45:46 32 Card Bridge v1.5 0%
2011-09-08 09:45:46 32 Card Bridge v1.6 0%
2011-09-08 09:45:56 3D Card Maker v1.2.1 0%
2011-09-08 09:45:56 3D Card Maker v1.3 0%
2011-09-08 09:46:08 4 Card Keno v2.0 0%
2011-09-08 09:46:08 4 Card Keno v2.5 0%
2011-09-08 09:46:08 4-Card-Keno v4.0.0.1 0%
2011-09-08 10:23:56 Card 2000 2.2b 0%
2011-09-08 10:23:56 Card 2000 v2.1 0%
2011-09-08 10:23:56 Card 2000 v2.2 0%
2011-09-08 10:23:56 Card 2000 v2.2b 0%
2011-09-08 10:23:56 Card Base 2.8 0%
2011-09-08 10:23:56 Card Base 2.9 0%
2011-09-08 10:23:56 Card Base v2.8 0%
2011-09-08 10:23:56 Card Base v2.9 0%
2011-09-08 10:23:56 Card Check 1.1 65%
2011-09-08 10:23:56 Card Check v1.1 0%
2011-09-08 10:23:56 Card Deck 2.0 0%
2011-09-08 10:23:56 Card Deck 2.0.01 0%
2011-09-08 10:23:56 Card Deck Pro 3.0 0%
2011-09-08 10:23:56 Card Deck Pro v1.0 0%
2011-09-08 10:23:56 Card Deck v2.0.01 0%
2011-09-08 10:23:56 Card Deck v2.0.02 0%
2011-09-08 10:23:56 card export 2.01.626 0%
2011-09-08 10:23:56 Card Export II 2.03 0%
2011-09-08 10:23:56 Card Master v2.0 0%
2011-09-08 10:23:56 Card Master v2.0 Win 0%
2011-09-08 10:23:56 Card Organizer 1.0.4 0%
2011-09-08 10:23:56 Card Organizer v1.0.4 0%
2011-09-08 10:46:36 E-Card Xpress 1.0 0%
2011-09-08 10:46:36 E-Card Xpress v1.0 0%
2011-09-08 10:48:38 EB-Card Maker 1.0 0%
2011-09-08 10:48:38 EB-Card Maker v1.0 0%
2011-09-08 10:49:31 Engine CARD 2.1 0%
2011-09-08 10:49:31 Engine CARD v2.1 0%
2011-09-08 10:54:21 File Card 98 2.21 67%
2011-09-08 10:54:21 File Card 98 v2.21 0%
2011-09-08 10:54:38 FileRecovery For SD Card 1.2 0%
2011-09-08 10:55:12 Five Card Frenzy 0%
2011-09-08 10:55:20 Flash Card Plus v2.0 0%
2011-09-08 11:24:49 Labels, card & more v1.60a 0%
2011-09-08 11:24:49 Labels, card & more v1.60a 40%
2011-09-08 12:25:38 My Card File 0%
2011-09-08 12:25:38 My Card File v1.0 0%
2011-09-08 12:25:46 My Time Card 1.0 0%
2011-09-08 12:25:46 My Time Card v1.0 0%
2011-09-08 12:37:15 Quick Card 2.5 0%
2011-09-08 12:37:15 Quick Card v2.5 0%
2011-09-08 12:40:05 RA Five Card Frenzy 0%
2011-09-08 12:44:04 Roto Card 3.2 0%
2011-09-08 12:44:04 Roto Card 3.20 0%
2011-09-08 12:44:04 Roto Card v3.2 0%
2011-09-08 12:44:04 Roto Card v3.20 0%
2011-09-08 12:54:07 Time Card Plus 3.2.12 0%
2011-09-08 13:11:17 Valentine Card s Us 0%
2011-09-08 13:23:15 Yellow Card 1.0.1J 0%
2011-09-08 13:23:15 Yellow Card v1.0.1J 0%
2012-12-12 05:13:04 Card loadng 0%
2009-10-17 06:18:06 A Plus Report Card Maker V2.1.0.5 23%
2009-10-17 06:19:09 Awesome 3 Card Poker V2.9 18%
2009-10-17 06:19:09 Awesome 3-Card Poker V1.0a 17%
2009-10-17 06:19:09 Awesome 3-Card Poker V1.2 24%
2009-10-17 06:19:09 Awesome 3-Card Poker V2.0 36%
2009-10-17 06:19:11 Awesome 3 Card Poker V2.9 20%
2009-10-17 06:19:11 Awesome 3-Card Poker V1.0a 14%
2009-10-17 06:19:11 Awesome 3-Card Poker V1.2 18%
2009-10-17 06:19:11 Awesome 3-Card Poker V2.0 21%
2009-10-17 06:19:31 Bingo Card Creator V1.0.3 71%
2009-10-17 06:19:31 Bingo Card Creator V1.0.5 20%
2009-10-17 06:19:31 Bingo Card Creator V1.0.51 25%
2009-10-17 06:19:32 Bingo Card Creator V1.0.51 MAC OSX 22%
2009-10-17 06:19:32 Bingo Card Creator V2.0 19%
2009-10-17 06:19:36 Business Card Designer V4.0 60%
2009-10-17 06:22:59 FileRecovery For XD-Picture Card V1.2 15%
2009-10-17 06:23:45 Greeting Card Studio V1.25-SND-WEB 19%
2009-10-17 06:32:35 Sports Card Collector V3.0 65%
2009-10-22 23:27:09 A Plus Report Card Maker V2.1.0.5 0%
2009-10-22 23:27:09 Ablesoft Card Collector 0%
2009-10-22 23:27:20 AMS Greeting Card Studio V1.57 0%
2009-10-22 23:27:20 AMS Greeting Card Studio V1.77 0%
2009-10-22 23:44:49 Bingo Card Creator V1.0.3 0%
2009-10-22 23:44:49 Bingo Card Creator V1.0.51 0%
2009-10-22 23:44:49 Bingo Card Creator V2.0 0%
2009-10-22 23:44:51 Business Card Designer Plus 7.50 57%